sensor_id;sensor_type;location;lat;lon;timestamp;P1;durP1;ratioP1;P2;durP2;ratioP2
6372;SDS011;3219;51.362;7.074;2023-05-10T00:00:22;5.05;;;3.63;;
6372;SDS011;3219;51.362;7.074;2023-05-10T00:02:49;4.70;;;3.47;;
6372;SDS011;3219;51.362;7.074;2023-05-10T00:05:15;4.45;;;3.05;;
6372;SDS011;3219;51.362;7.074;2023-05-10T00:07:44;4.90;;;3.38;;
6372;SDS011;3219;51.362;7.074;2023-05-10T00:10:10;5.43;;;4.13;;
6372;SDS011;3219;51.362;7.074;2023-05-10T00:12:37;5.95;;;4.57;;
6372;SDS011;3219;51.362;7.074;2023-05-10T00:15:04;5.95;;;4.25;;
6372;SDS011;3219;51.362;7.074;2023-05-10T00:17:32;6.38;;;4.47;;
6372;SDS011;3219;51.362;7.074;2023-05-10T00:19:59;6.68;;;4.47;;
6372;SDS011;3219;51.362;7.074;2023-05-10T00:22:29;5.88;;;3.97;;
6372;SDS011;3219;51.362;7.074;2023-05-10T00:24:58;5.65;;;4.05;;
6372;SDS011;3219;51.362;7.074;2023-05-10T00:27:25;7.32;;;5.05;;
6372;SDS011;3219;51.362;7.074;2023-05-10T00:29:51;5.05;;;3.42;;
6372;SDS011;3219;51.362;7.074;2023-05-10T00:32:18;7.40;;;3.88;;
6372;SDS011;3219;51.362;7.074;2023-05-10T00:34:45;4.47;;;3.22;;
6372;SDS011;3219;51.362;7.074;2023-05-10T00:37:12;4.85;;;3.28;;
6372;SDS011;3219;51.362;7.074;2023-05-10T00:39:40;5.25;;;3.55;;
6372;SDS011;3219;51.362;7.074;2023-05-10T00:42:08;5.20;;;3.67;;
6372;SDS011;3219;51.362;7.074;2023-05-10T00:44:35;7.38;;;3.80;;
6372;SDS011;3219;51.362;7.074;2023-05-10T00:47:03;5.15;;;3.25;;
6372;SDS011;3219;51.362;7.074;2023-05-10T00:49:29;6.07;;;4.18;;
6372;SDS011;3219;51.362;7.074;2023-05-10T00:51:56;5.05;;;3.53;;
6372;SDS011;3219;51.362;7.074;2023-05-10T00:54:23;6.85;;;4.80;;
6372;SDS011;3219;51.362;7.074;2023-05-10T00:56:50;5.60;;;3.92;;
6372;SDS011;3219;51.362;7.074;2023-05-10T00:59:19;6.40;;;4.22;;
6372;SDS011;3219;51.362;7.074;2023-05-10T01:01:46;6.85;;;5.03;;
6372;SDS011;3219;51.362;7.074;2023-05-10T01:04:13;6.43;;;4.13;;
6372;SDS011;3219;51.362;7.074;2023-05-10T01:06:41;7.15;;;4.78;;
6372;SDS011;3219;51.362;7.074;2023-05-10T01:09:08;8.25;;;5.30;;
6372;SDS011;3219;51.362;7.074;2023-05-10T01:11:36;8.18;;;5.55;;
6372;SDS011;3219;51.362;7.074;2023-05-10T01:16:35;7.28;;;4.75;;
6372;SDS011;3219;51.362;7.074;2023-05-10T01:19:04;6.53;;;4.93;;
6372;SDS011;3219;51.362;7.074;2023-05-10T01:21:38;6.38;;;4.85;;
6372;SDS011;3219;51.362;7.074;2023-05-10T01:30:44;6.95;;;5.20;;
6372;SDS011;3219;51.362;7.074;2023-05-10T01:33:34;6.82;;;5.13;;
6372;SDS011;3219;51.362;7.074;2023-05-10T01:36:05;8.68;;;5.82;;
6372;SDS011;3219;51.362;7.074;2023-05-10T01:38:41;9.07;;;5.97;;
6372;SDS011;3219;51.362;7.074;2023-05-10T01:41:13;7.25;;;4.85;;
6372;SDS011;3219;51.362;7.074;2023-05-10T01:43:46;8.23;;;6.00;;
6372;SDS011;3219;51.362;7.074;2023-05-10T01:46:21;8.85;;;5.80;;
6372;SDS011;3219;51.362;7.074;2023-05-10T01:48:55;7.90;;;5.40;;
6372;SDS011;3219;51.362;7.074;2023-05-10T01:51:26;8.35;;;5.70;;
6372;SDS011;3219;51.362;7.074;2023-05-10T01:53:59;8.50;;;6.82;;
6372;SDS011;3219;51.362;7.074;2023-05-10T01:56:29;8.43;;;6.47;;
6372;SDS011;3219;51.362;7.074;2023-05-10T01:58:57;8.23;;;5.53;;
6372;SDS011;3219;51.362;7.074;2023-05-10T02:01:26;9.75;;;6.40;;
6372;SDS011;3219;51.362;7.074;2023-05-10T02:03:54;7.82;;;6.55;;
6372;SDS011;3219;51.362;7.074;2023-05-10T02:06:23;8.32;;;6.63;;
6372;SDS011;3219;51.362;7.074;2023-05-10T02:08:51;7.50;;;5.75;;
6372;SDS011;3219;51.362;7.074;2023-05-10T02:11:19;9.82;;;7.28;;
6372;SDS011;3219;51.362;7.074;2023-05-10T02:13:48;8.20;;;6.43;;
6372;SDS011;3219;51.362;7.074;2023-05-10T02:16:16;7.50;;;6.15;;
6372;SDS011;3219;51.362;7.074;2023-05-10T02:18:48;8.55;;;6.18;;
6372;SDS011;3219;51.362;7.074;2023-05-10T02:21:19;9.55;;;6.80;;
6372;SDS011;3219;51.362;7.074;2023-05-10T02:23:48;8.80;;;6.45;;
6372;SDS011;3219;51.362;7.074;2023-05-10T02:26:17;9.05;;;6.97;;
6372;SDS011;3219;51.362;7.074;2023-05-10T02:28:46;8.32;;;5.72;;
6372;SDS011;3219;51.362;7.074;2023-05-10T02:31:14;8.88;;;6.30;;
6372;SDS011;3219;51.362;7.074;2023-05-10T02:33:41;10.80;;;7.70;;
6372;SDS011;3219;51.362;7.074;2023-05-10T02:36:10;10.57;;;6.93;;
6372;SDS011;3219;51.362;7.074;2023-05-10T02:38:39;11.90;;;7.72;;
6372;SDS011;3219;51.362;7.074;2023-05-10T02:41:08;13.43;;;7.85;;
6372;SDS011;3219;51.362;7.074;2023-05-10T02:43:37;9.38;;;7.20;;
6372;SDS011;3219;51.362;7.074;2023-05-10T02:48:33;11.40;;;7.20;;
6372;SDS011;3219;51.362;7.074;2023-05-10T02:51:00;10.43;;;7.72;;
6372;SDS011;3219;51.362;7.074;2023-05-10T02:53:31;10.65;;;6.82;;
6372;SDS011;3219;51.362;7.074;2023-05-10T02:56:05;11.80;;;8.35;;
6372;SDS011;3219;51.362;7.074;2023-05-10T02:58:38;12.43;;;7.60;;
6372;SDS011;3219;51.362;7.074;2023-05-10T03:01:05;10.70;;;8.13;;
6372;SDS011;3219;51.362;7.074;2023-05-10T03:03:32;10.80;;;7.85;;
6372;SDS011;3219;51.362;7.074;2023-05-10T03:05:59;12.82;;;8.07;;
6372;SDS011;3219;51.362;7.074;2023-05-10T03:08:26;9.82;;;7.15;;
6372;SDS011;3219;51.362;7.074;2023-05-10T03:10:55;10.90;;;7.35;;
6372;SDS011;3219;51.362;7.074;2023-05-10T03:13:35;11.13;;;7.90;;
6372;SDS011;3219;51.362;7.074;2023-05-10T03:16:09;12.77;;;7.65;;
6372;SDS011;3219;51.362;7.074;2023-05-10T03:18:41;11.85;;;7.28;;
6372;SDS011;3219;51.362;7.074;2023-05-10T03:21:13;12.82;;;9.13;;
6372;SDS011;3219;51.362;7.074;2023-05-10T03:23:44;12.10;;;7.53;;
6372;SDS011;3219;51.362;7.074;2023-05-10T03:26:17;11.15;;;7.00;;
6372;SDS011;3219;51.362;7.074;2023-05-10T03:28:46;11.65;;;7.40;;
6372;SDS011;3219;51.362;7.074;2023-05-10T03:31:14;10.50;;;7.00;;
6372;SDS011;3219;51.362;7.074;2023-05-10T03:33:45;10.82;;;6.05;;
6372;SDS011;3219;51.362;7.074;2023-05-10T03:36:13;12.60;;;7.68;;
6372;SDS011;3219;51.362;7.074;2023-05-10T03:38:40;12.55;;;8.32;;
6372;SDS011;3219;51.362;7.074;2023-05-10T03:41:06;13.65;;;8.80;;
6372;SDS011;3219;51.362;7.074;2023-05-10T03:43:34;13.90;;;8.95;;
6372;SDS011;3219;51.362;7.074;2023-05-10T03:46:02;11.57;;;7.38;;
6372;SDS011;3219;51.362;7.074;2023-05-10T03:48:28;12.15;;;8.57;;
6372;SDS011;3219;51.362;7.074;2023-05-10T03:50:55;15.15;;;9.38;;
6372;SDS011;3219;51.362;7.074;2023-05-10T03:53:22;12.82;;;8.50;;
6372;SDS011;3219;51.362;7.074;2023-05-10T03:55:49;14.23;;;9.15;;
6372;SDS011;3219;51.362;7.074;2023-05-10T03:58:16;17.40;;;10.48;;
6372;SDS011;3219;51.362;7.074;2023-05-10T04:00:44;14.48;;;9.68;;
6372;SDS011;3219;51.362;7.074;2023-05-10T04:03:11;15.98;;;9.75;;
6372;SDS011;3219;51.362;7.074;2023-05-10T04:05:38;14.90;;;9.25;;
6372;SDS011;3219;51.362;7.074;2023-05-10T04:08:05;17.02;;;9.60;;
6372;SDS011;3219;51.362;7.074;2023-05-10T04:10:32;14.60;;;8.95;;
6372;SDS011;3219;51.362;7.074;2023-05-10T04:12:59;12.40;;;7.90;;
6372;SDS011;3219;51.362;7.074;2023-05-10T04:15:25;16.08;;;9.93;;
6372;SDS011;3219;51.362;7.074;2023-05-10T04:17:53;17.65;;;10.43;;
6372;SDS011;3219;51.362;7.074;2023-05-10T04:20:20;21.55;;;10.85;;
6372;SDS011;3219;51.362;7.074;2023-05-10T04:22:47;20.83;;;12.93;;
6372;SDS011;3219;51.362;7.074;2023-05-10T04:25:14;21.27;;;13.13;;
6372;SDS011;3219;51.362;7.074;2023-05-10T04:27:40;23.02;;;13.25;;
6372;SDS011;3219;51.362;7.074;2023-05-10T04:30:07;19.27;;;11.57;;
6372;SDS011;3219;51.362;7.074;2023-05-10T04:32:35;21.70;;;12.18;;
6372;SDS011;3219;51.362;7.074;2023-05-10T04:35:03;20.77;;;10.80;;
6372;SDS011;3219;51.362;7.074;2023-05-10T04:37:31;27.77;;;13.88;;
6372;SDS011;3219;51.362;7.074;2023-05-10T04:39:57;25.23;;;12.77;;
6372;SDS011;3219;51.362;7.074;2023-05-10T04:42:25;22.52;;;14.25;;
6372;SDS011;3219;51.362;7.074;2023-05-10T04:44:52;23.45;;;12.43;;
6372;SDS011;3219;51.362;7.074;2023-05-10T04:47:19;25.48;;;14.25;;
6372;SDS011;3219;51.362;7.074;2023-05-10T04:49:46;22.08;;;12.48;;
6372;SDS011;3219;51.362;7.074;2023-05-10T04:52:14;24.73;;;12.88;;
6372;SDS011;3219;51.362;7.074;2023-05-10T04:54:42;26.80;;;14.77;;
6372;SDS011;3219;51.362;7.074;2023-05-10T04:57:09;23.92;;;13.95;;
6372;SDS011;3219;51.362;7.074;2023-05-10T04:59:35;24.95;;;13.77;;
6372;SDS011;3219;51.362;7.074;2023-05-10T05:02:02;25.75;;;13.02;;
6372;SDS011;3219;51.362;7.074;2023-05-10T05:04:29;25.95;;;14.75;;
6372;SDS011;3219;51.362;7.074;2023-05-10T05:06:56;27.08;;;13.18;;
6372;SDS011;3219;51.362;7.074;2023-05-10T05:09:24;23.83;;;13.52;;
6372;SDS011;3219;51.362;7.074;2023-05-10T05:11:51;23.90;;;14.10;;
6372;SDS011;3219;51.362;7.074;2023-05-10T05:14:18;24.98;;;14.32;;
6372;SDS011;3219;51.362;7.074;2023-05-10T05:16:45;28.60;;;15.00;;
6372;SDS011;3219;51.362;7.074;2023-05-10T05:19:12;29.33;;;14.70;;
6372;SDS011;3219;51.362;7.074;2023-05-10T05:21:39;28.80;;;16.23;;
6372;SDS011;3219;51.362;7.074;2023-05-10T05:24:06;29.67;;;15.48;;
6372;SDS011;3219;51.362;7.074;2023-05-10T05:26:34;30.55;;;17.25;;
6372;SDS011;3219;51.362;7.074;2023-05-10T05:29:01;27.10;;;15.05;;
6372;SDS011;3219;51.362;7.074;2023-05-10T05:31:28;26.70;;;15.38;;
6372;SDS011;3219;51.362;7.074;2023-05-10T05:33:56;25.08;;;13.77;;
6372;SDS011;3219;51.362;7.074;2023-05-10T05:36:23;28.00;;;14.77;;
6372;SDS011;3219;51.362;7.074;2023-05-10T05:38:50;24.33;;;14.00;;
6372;SDS011;3219;51.362;7.074;2023-05-10T05:41:17;26.60;;;14.93;;
6372;SDS011;3219;51.362;7.074;2023-05-10T05:43:45;25.38;;;14.75;;
6372;SDS011;3219;51.362;7.074;2023-05-10T05:46:12;24.67;;;14.73;;
6372;SDS011;3219;51.362;7.074;2023-05-10T05:48:38;27.73;;;14.85;;
6372;SDS011;3219;51.362;7.074;2023-05-10T05:51:05;25.67;;;14.20;;
6372;SDS011;3219;51.362;7.074;2023-05-10T05:53:32;26.80;;;15.02;;
6372;SDS011;3219;51.362;7.074;2023-05-10T05:55:59;25.65;;;12.77;;
6372;SDS011;3219;51.362;7.074;2023-05-10T05:58:28;22.40;;;13.63;;
6372;SDS011;3219;51.362;7.074;2023-05-10T06:00:56;26.60;;;14.85;;
6372;SDS011;3219;51.362;7.074;2023-05-10T06:03:23;18.05;;;11.77;;
6372;SDS011;3219;51.362;7.074;2023-05-10T06:05:52;18.02;;;10.45;;
6372;SDS011;3219;51.362;7.074;2023-05-10T06:08:18;21.08;;;12.00;;
6372;SDS011;3219;51.362;7.074;2023-05-10T06:10:47;26.15;;;13.25;;
6372;SDS011;3219;51.362;7.074;2023-05-10T06:13:14;23.67;;;13.43;;
6372;SDS011;3219;51.362;7.074;2023-05-10T06:15:42;22.40;;;13.50;;
6372;SDS011;3219;51.362;7.074;2023-05-10T06:18:10;25.55;;;14.30;;
6372;SDS011;3219;51.362;7.074;2023-05-10T06:20:37;27.35;;;15.07;;
6372;SDS011;3219;51.362;7.074;2023-05-10T06:23:04;22.85;;;13.13;;
6372;SDS011;3219;51.362;7.074;2023-05-10T06:25:31;22.65;;;12.90;;
6372;SDS011;3219;51.362;7.074;2023-05-10T06:27:58;22.33;;;12.88;;
6372;SDS011;3219;51.362;7.074;2023-05-10T06:30:26;22.30;;;11.32;;
6372;SDS011;3219;51.362;7.074;2023-05-10T06:32:53;21.52;;;13.13;;
6372;SDS011;3219;51.362;7.074;2023-05-10T06:35:22;20.23;;;11.65;;
6372;SDS011;3219;51.362;7.074;2023-05-10T06:37:50;21.60;;;12.50;;
6372;SDS011;3219;51.362;7.074;2023-05-10T06:40:18;23.05;;;13.27;;
6372;SDS011;3219;51.362;7.074;2023-05-10T06:42:47;21.73;;;13.10;;
6372;SDS011;3219;51.362;7.074;2023-05-10T06:45:14;26.05;;;13.90;;
6372;SDS011;3219;51.362;7.074;2023-05-10T06:47:41;20.60;;;10.45;;
6372;SDS011;3219;51.362;7.074;2023-05-10T06:50:09;19.20;;;11.13;;
6372;SDS011;3219;51.362;7.074;2023-05-10T06:52:38;22.27;;;12.88;;
6372;SDS011;3219;51.362;7.074;2023-05-10T06:55:05;22.30;;;12.95;;
6372;SDS011;3219;51.362;7.074;2023-05-10T06:57:33;20.52;;;11.32;;
6372;SDS011;3219;51.362;7.074;2023-05-10T07:00:00;19.30;;;11.40;;
6372;SDS011;3219;51.362;7.074;2023-05-10T07:02:29;16.08;;;9.98;;
6372;SDS011;3219;51.362;7.074;2023-05-10T07:04:55;18.30;;;10.32;;
6372;SDS011;3219;51.362;7.074;2023-05-10T07:07:22;19.75;;;10.07;;
6372;SDS011;3219;51.362;7.074;2023-05-10T07:09:51;18.85;;;11.30;;
6372;SDS011;3219;51.362;7.074;2023-05-10T07:12:18;20.42;;;9.98;;
6372;SDS011;3219;51.362;7.074;2023-05-10T07:14:44;15.18;;;9.30;;
6372;SDS011;3219;51.362;7.074;2023-05-10T07:17:11;16.42;;;9.02;;
6372;SDS011;3219;51.362;7.074;2023-05-10T07:19:38;14.75;;;9.00;;
6372;SDS011;3219;51.362;7.074;2023-05-10T07:22:05;13.57;;;9.18;;
6372;SDS011;3219;51.362;7.074;2023-05-10T07:24:31;18.13;;;10.30;;
6372;SDS011;3219;51.362;7.074;2023-05-10T07:27:00;21.15;;;10.48;;
6372;SDS011;3219;51.362;7.074;2023-05-10T07:29:27;19.25;;;11.52;;
6372;SDS011;3219;51.362;7.074;2023-05-10T07:31:54;19.02;;;11.38;;
6372;SDS011;3219;51.362;7.074;2023-05-10T07:34:21;19.35;;;10.75;;
6372;SDS011;3219;51.362;7.074;2023-05-10T07:36:48;20.73;;;10.57;;
6372;SDS011;3219;51.362;7.074;2023-05-10T07:39:14;23.50;;;12.10;;
6372;SDS011;3219;51.362;7.074;2023-05-10T07:41:41;22.70;;;11.60;;
6372;SDS011;3219;51.362;7.074;2023-05-10T07:44:09;20.55;;;11.07;;
6372;SDS011;3219;51.362;7.074;2023-05-10T07:46:36;23.02;;;11.57;;
6372;SDS011;3219;51.362;7.074;2023-05-10T07:49:03;23.33;;;11.73;;
6372;SDS011;3219;51.362;7.074;2023-05-10T07:51:30;20.88;;;10.90;;
6372;SDS011;3219;51.362;7.074;2023-05-10T07:53:57;22.05;;;11.00;;
6372;SDS011;3219;51.362;7.074;2023-05-10T07:56:24;25.20;;;12.27;;
6372;SDS011;3219;51.362;7.074;2023-05-10T07:58:54;26.73;;;13.90;;
6372;SDS011;3219;51.362;7.074;2023-05-10T08:01:23;28.67;;;14.75;;
6372;SDS011;3219;51.362;7.074;2023-05-10T08:03:50;22.25;;;12.52;;
6372;SDS011;3219;51.362;7.074;2023-05-10T08:06:18;22.15;;;12.77;;
6372;SDS011;3219;51.362;7.074;2023-05-10T08:08:45;24.67;;;12.57;;
6372;SDS011;3219;51.362;7.074;2023-05-10T08:11:15;24.40;;;12.98;;
6372;SDS011;3219;51.362;7.074;2023-05-10T08:13:42;18.95;;;10.75;;
6372;SDS011;3219;51.362;7.074;2023-05-10T08:16:09;17.98;;;11.00;;
6372;SDS011;3219;51.362;7.074;2023-05-10T08:18:38;19.33;;;11.20;;
6372;SDS011;3219;51.362;7.074;2023-05-10T08:21:05;17.40;;;9.23;;
6372;SDS011;3219;51.362;7.074;2023-05-10T08:23:32;16.60;;;8.00;;
6372;SDS011;3219;51.362;7.074;2023-05-10T08:25:59;12.93;;;7.85;;
6372;SDS011;3219;51.362;7.074;2023-05-10T08:28:26;10.57;;;6.85;;
6372;SDS011;3219;51.362;7.074;2023-05-10T08:30:53;14.20;;;7.47;;
6372;SDS011;3219;51.362;7.074;2023-05-10T08:33:20;12.18;;;7.85;;
6372;SDS011;3219;51.362;7.074;2023-05-10T08:35:48;16.35;;;8.48;;
6372;SDS011;3219;51.362;7.074;2023-05-10T08:38:15;13.63;;;8.52;;
6372;SDS011;3219;51.362;7.074;2023-05-10T08:40:42;14.93;;;8.77;;
6372;SDS011;3219;51.362;7.074;2023-05-10T08:43:10;15.20;;;9.57;;
6372;SDS011;3219;51.362;7.074;2023-05-10T08:45:38;16.77;;;10.50;;
6372;SDS011;3219;51.362;7.074;2023-05-10T08:48:06;14.40;;;9.05;;
6372;SDS011;3219;51.362;7.074;2023-05-10T08:50:34;15.50;;;8.85;;
6372;SDS011;3219;51.362;7.074;2023-05-10T08:53:05;19.88;;;11.90;;
6372;SDS011;3219;51.362;7.074;2023-05-10T08:55:35;13.63;;;9.48;;
6372;SDS011;3219;51.362;7.074;2023-05-10T08:58:03;16.70;;;10.48;;
6372;SDS011;3219;51.362;7.074;2023-05-10T09:00:30;14.25;;;8.27;;
6372;SDS011;3219;51.362;7.074;2023-05-10T09:02:58;13.77;;;8.50;;
6372;SDS011;3219;51.362;7.074;2023-05-10T09:05:25;17.48;;;10.75;;
6372;SDS011;3219;51.362;7.074;2023-05-10T09:07:53;18.80;;;10.23;;
6372;SDS011;3219;51.362;7.074;2023-05-10T09:10:21;18.42;;;9.95;;
6372;SDS011;3219;51.362;7.074;2023-05-10T09:12:51;19.02;;;10.00;;
6372;SDS011;3219;51.362;7.074;2023-05-10T09:15:18;18.05;;;9.25;;
6372;SDS011;3219;51.362;7.074;2023-05-10T09:17:46;21.88;;;12.10;;
6372;SDS011;3219;51.362;7.074;2023-05-10T09:20:13;22.23;;;12.07;;
6372;SDS011;3219;51.362;7.074;2023-05-10T09:22:40;20.92;;;11.20;;
6372;SDS011;3219;51.362;7.074;2023-05-10T09:25:07;20.38;;;11.10;;
6372;SDS011;3219;51.362;7.074;2023-05-10T09:27:37;26.48;;;13.73;;
6372;SDS011;3219;51.362;7.074;2023-05-10T09:30:05;28.35;;;13.93;;
6372;SDS011;3219;51.362;7.074;2023-05-10T09:32:36;23.48;;;12.95;;
6372;SDS011;3219;51.362;7.074;2023-05-10T09:35:07;23.85;;;13.60;;
6372;SDS011;3219;51.362;7.074;2023-05-10T09:37:34;23.85;;;11.93;;
6372;SDS011;3219;51.362;7.074;2023-05-10T09:40:03;22.42;;;12.07;;
6372;SDS011;3219;51.362;7.074;2023-05-10T09:42:32;24.63;;;13.32;;
6372;SDS011;3219;51.362;7.074;2023-05-10T09:45:02;24.58;;;12.77;;
6372;SDS011;3219;51.362;7.074;2023-05-10T09:47:31;24.30;;;13.20;;
6372;SDS011;3219;51.362;7.074;2023-05-10T09:49:58;24.67;;;13.10;;
6372;SDS011;3219;51.362;7.074;2023-05-10T09:52:28;27.13;;;14.00;;
6372;SDS011;3219;51.362;7.074;2023-05-10T09:54:55;24.52;;;15.32;;
6372;SDS011;3219;51.362;7.074;2023-05-10T09:57:22;26.92;;;14.30;;
6372;SDS011;3219;51.362;7.074;2023-05-10T09:59:50;25.40;;;15.10;;
6372;SDS011;3219;51.362;7.074;2023-05-10T10:02:20;24.50;;;14.43;;
6372;SDS011;3219;51.362;7.074;2023-05-10T10:04:54;24.00;;;13.07;;
6372;SDS011;3219;51.362;7.074;2023-05-10T10:07:22;28.65;;;15.40;;
6372;SDS011;3219;51.362;7.074;2023-05-10T10:09:50;29.83;;;15.38;;
6372;SDS011;3219;51.362;7.074;2023-05-10T10:12:17;28.33;;;14.27;;
6372;SDS011;3219;51.362;7.074;2023-05-10T10:14:45;26.15;;;14.13;;
6372;SDS011;3219;51.362;7.074;2023-05-10T10:17:14;25.58;;;13.60;;
6372;SDS011;3219;51.362;7.074;2023-05-10T10:19:42;22.77;;;14.13;;
6372;SDS011;3219;51.362;7.074;2023-05-10T10:22:10;22.23;;;13.55;;
6372;SDS011;3219;51.362;7.074;2023-05-10T10:24:38;24.10;;;14.82;;
6372;SDS011;3219;51.362;7.074;2023-05-10T10:27:15;22.98;;;12.73;;
6372;SDS011;3219;51.362;7.074;2023-05-10T10:29:51;19.77;;;11.63;;
6372;SDS011;3219;51.362;7.074;2023-05-10T10:32:26;17.50;;;10.15;;
6372;SDS011;3219;51.362;7.074;2023-05-10T10:34:57;16.98;;;10.35;;
6372;SDS011;3219;51.362;7.074;2023-05-10T10:40:25;15.93;;;10.65;;
6372;SDS011;3219;51.362;7.074;2023-05-10T10:42:53;16.27;;;10.15;;
6372;SDS011;3219;51.362;7.074;2023-05-10T10:45:20;19.42;;;11.00;;
6372;SDS011;3219;51.362;7.074;2023-05-10T10:47:48;18.42;;;10.77;;
6372;SDS011;3219;51.362;7.074;2023-05-10T10:50:20;16.48;;;9.90;;
6372;SDS011;3219;51.362;7.074;2023-05-10T10:52:47;13.95;;;9.48;;
6372;SDS011;3219;51.362;7.074;2023-05-10T10:55:17;15.48;;;9.65;;
6372;SDS011;3219;51.362;7.074;2023-05-10T10:57:48;17.20;;;9.25;;
6372;SDS011;3219;51.362;7.074;2023-05-10T11:02:48;14.80;;;9.35;;
6372;SDS011;3219;51.362;7.074;2023-05-10T11:08:07;18.90;;;11.10;;
6372;SDS011;3219;51.362;7.074;2023-05-10T11:10:38;17.20;;;9.68;;
6372;SDS011;3219;51.362;7.074;2023-05-10T11:13:06;16.48;;;10.73;;
6372;SDS011;3219;51.362;7.074;2023-05-10T11:15:35;17.02;;;10.63;;
6372;SDS011;3219;51.362;7.074;2023-05-10T11:18:18;16.58;;;8.95;;
6372;SDS011;3219;51.362;7.074;2023-05-10T11:20:51;24.90;;;11.45;;
6372;SDS011;3219;51.362;7.074;2023-05-10T11:23:21;22.75;;;11.88;;
6372;SDS011;3219;51.362;7.074;2023-05-10T11:25:48;16.85;;;11.57;;
6372;SDS011;3219;51.362;7.074;2023-05-10T11:28:16;18.80;;;11.82;;
6372;SDS011;3219;51.362;7.074;2023-05-10T11:33:14;18.27;;;10.15;;
6372;SDS011;3219;51.362;7.074;2023-05-10T11:35:42;21.13;;;9.73;;
6372;SDS011;3219;51.362;7.074;2023-05-10T11:38:10;17.55;;;10.43;;
6372;SDS011;3219;51.362;7.074;2023-05-10T11:40:38;15.00;;;9.55;;
6372;SDS011;3219;51.362;7.074;2023-05-10T11:43:06;17.25;;;11.75;;
6372;SDS011;3219;51.362;7.074;2023-05-10T11:45:35;19.63;;;11.55;;
6372;SDS011;3219;51.362;7.074;2023-05-10T11:48:03;17.60;;;11.32;;
6372;SDS011;3219;51.362;7.074;2023-05-10T11:50:30;13.73;;;9.02;;
6372;SDS011;3219;51.362;7.074;2023-05-10T11:52:57;15.80;;;10.32;;
6372;SDS011;3219;51.362;7.074;2023-05-10T11:55:26;18.55;;;11.13;;
6372;SDS011;3219;51.362;7.074;2023-05-10T11:57:55;14.23;;;8.95;;
6372;SDS011;3219;51.362;7.074;2023-05-10T12:00:26;14.00;;;9.10;;
6372;SDS011;3219;51.362;7.074;2023-05-10T12:02:53;20.33;;;8.68;;
6372;SDS011;3219;51.362;7.074;2023-05-10T12:05:21;13.73;;;8.73;;
6372;SDS011;3219;51.362;7.074;2023-05-10T12:07:49;11.85;;;8.30;;
6372;SDS011;3219;51.362;7.074;2023-05-10T12:10:16;13.18;;;8.40;;
6372;SDS011;3219;51.362;7.074;2023-05-10T12:12:52;12.38;;;7.10;;
6372;SDS011;3219;51.362;7.074;2023-05-10T12:15:19;12.18;;;7.72;;
6372;SDS011;3219;51.362;7.074;2023-05-10T12:17:47;11.45;;;7.78;;
6372;SDS011;3219;51.362;7.074;2023-05-10T12:20:15;12.73;;;7.13;;
6372;SDS011;3219;51.362;7.074;2023-05-10T12:22:44;14.52;;;8.73;;
6372;SDS011;3219;51.362;7.074;2023-05-10T12:25:13;15.18;;;9.70;;
6372;SDS011;3219;51.362;7.074;2023-05-10T12:27:40;14.13;;;8.60;;
6372;SDS011;3219;51.362;7.074;2023-05-10T12:30:09;14.73;;;9.80;;
6372;SDS011;3219;51.362;7.074;2023-05-10T12:32:38;14.40;;;9.93;;
6372;SDS011;3219;51.362;7.074;2023-05-10T12:35:06;12.05;;;8.60;;
6372;SDS011;3219;51.362;7.074;2023-05-10T12:40:05;13.38;;;8.48;;
6372;SDS011;3219;51.362;7.074;2023-05-10T12:42:35;16.83;;;10.80;;
6372;SDS011;3219;51.362;7.074;2023-05-10T12:45:05;15.60;;;10.75;;
6372;SDS011;3219;51.362;7.074;2023-05-10T12:47:36;13.80;;;8.93;;
6372;SDS011;3219;51.362;7.074;2023-05-10T12:50:06;13.93;;;9.48;;
6372;SDS011;3219;51.362;7.074;2023-05-10T12:52:35;15.25;;;10.23;;
6372;SDS011;3219;51.362;7.074;2023-05-10T12:55:03;14.48;;;10.63;;
6372;SDS011;3219;51.362;7.074;2023-05-10T12:57:30;13.77;;;10.07;;
6372;SDS011;3219;51.362;7.074;2023-05-10T12:59:58;14.07;;;10.00;;
6372;SDS011;3219;51.362;7.074;2023-05-10T13:02:26;14.77;;;10.75;;
6372;SDS011;3219;51.362;7.074;2023-05-10T13:04:53;14.20;;;9.45;;
6372;SDS011;3219;51.362;7.074;2023-05-10T13:07:20;13.93;;;9.07;;
6372;SDS011;3219;51.362;7.074;2023-05-10T13:09:46;15.85;;;9.50;;
6372;SDS011;3219;51.362;7.074;2023-05-10T13:12:13;13.65;;;9.70;;
6372;SDS011;3219;51.362;7.074;2023-05-10T13:14:40;10.95;;;8.25;;
6372;SDS011;3219;51.362;7.074;2023-05-10T13:17:07;10.00;;;7.75;;
6372;SDS011;3219;51.362;7.074;2023-05-10T13:19:35;11.50;;;7.93;;
6372;SDS011;3219;51.362;7.074;2023-05-10T13:22:02;10.95;;;7.82;;
6372;SDS011;3219;51.362;7.074;2023-05-10T13:24:29;11.55;;;8.95;;
6372;SDS011;3219;51.362;7.074;2023-05-10T13:26:56;12.48;;;9.20;;
6372;SDS011;3219;51.362;7.074;2023-05-10T13:29:22;11.75;;;7.72;;
6372;SDS011;3219;51.362;7.074;2023-05-10T13:31:49;13.80;;;8.18;;
6372;SDS011;3219;51.362;7.074;2023-05-10T13:34:16;12.65;;;7.38;;
6372;SDS011;3219;51.362;7.074;2023-05-10T13:36:46;11.77;;;8.77;;
6372;SDS011;3219;51.362;7.074;2023-05-10T13:39:13;12.65;;;8.45;;
6372;SDS011;3219;51.362;7.074;2023-05-10T13:41:40;10.07;;;7.80;;
6372;SDS011;3219;51.362;7.074;2023-05-10T13:44:07;9.48;;;7.55;;
6372;SDS011;3219;51.362;7.074;2023-05-10T13:46:34;9.00;;;6.68;;
6372;SDS011;3219;51.362;7.074;2023-05-10T13:49:01;11.00;;;7.00;;
6372;SDS011;3219;51.362;7.074;2023-05-10T13:51:29;11.25;;;8.02;;
6372;SDS011;3219;51.362;7.074;2023-05-10T13:53:57;10.60;;;7.75;;
6372;SDS011;3219;51.362;7.074;2023-05-10T13:56:24;11.43;;;7.82;;
6372;SDS011;3219;51.362;7.074;2023-05-10T13:58:52;11.95;;;8.32;;
6372;SDS011;3219;51.362;7.074;2023-05-10T14:01:19;11.55;;;7.55;;
6372;SDS011;3219;51.362;7.074;2023-05-10T14:03:46;12.68;;;7.63;;
6372;SDS011;3219;51.362;7.074;2023-05-10T14:06:13;11.15;;;7.22;;
6372;SDS011;3219;51.362;7.074;2023-05-10T14:08:39;11.00;;;8.18;;
6372;SDS011;3219;51.362;7.074;2023-05-10T14:11:08;10.15;;;6.55;;
6372;SDS011;3219;51.362;7.074;2023-05-10T14:13:34;8.70;;;6.97;;
6372;SDS011;3219;51.362;7.074;2023-05-10T14:16:01;13.02;;;7.50;;
6372;SDS011;3219;51.362;7.074;2023-05-10T14:18:30;11.15;;;8.65;;
6372;SDS011;3219;51.362;7.074;2023-05-10T14:20:57;9.80;;;7.63;;
6372;SDS011;3219;51.362;7.074;2023-05-10T14:23:24;11.63;;;7.88;;
6372;SDS011;3219;51.362;7.074;2023-05-10T14:25:53;10.45;;;8.13;;
6372;SDS011;3219;51.362;7.074;2023-05-10T14:28:22;12.50;;;7.93;;
6372;SDS011;3219;51.362;7.074;2023-05-10T14:30:51;11.30;;;8.27;;
6372;SDS011;3219;51.362;7.074;2023-05-10T14:33:19;11.85;;;8.48;;
6372;SDS011;3219;51.362;7.074;2023-05-10T14:35:47;12.68;;;9.70;;
6372;SDS011;3219;51.362;7.074;2023-05-10T14:38:16;12.90;;;9.18;;
6372;SDS011;3219;51.362;7.074;2023-05-10T14:40:44;12.18;;;9.23;;
6372;SDS011;3219;51.362;7.074;2023-05-10T14:43:12;10.95;;;7.72;;
6372;SDS011;3219;51.362;7.074;2023-05-10T14:48:12;11.18;;;8.18;;
6372;SDS011;3219;51.362;7.074;2023-05-10T14:50:42;11.07;;;8.13;;
6372;SDS011;3219;51.362;7.074;2023-05-10T14:53:11;12.68;;;8.38;;
6372;SDS011;3219;51.362;7.074;2023-05-10T14:55:38;12.05;;;8.38;;
6372;SDS011;3219;51.362;7.074;2023-05-10T14:58:06;10.48;;;7.07;;
6372;SDS011;3219;51.362;7.074;2023-05-10T15:00:33;12.20;;;8.43;;
6372;SDS011;3219;51.362;7.074;2023-05-10T15:03:01;11.93;;;7.97;;
6372;SDS011;3219;51.362;7.074;2023-05-10T15:05:30;11.48;;;8.18;;
6372;SDS011;3219;51.362;7.074;2023-05-10T15:07:57;10.50;;;8.18;;
6372;SDS011;3219;51.362;7.074;2023-05-10T15:10:24;11.10;;;8.90;;
6372;SDS011;3219;51.362;7.074;2023-05-10T15:12:50;9.45;;;7.70;;
6372;SDS011;3219;51.362;7.074;2023-05-10T15:15:17;12.75;;;7.90;;
6372;SDS011;3219;51.362;7.074;2023-05-10T15:17:44;11.15;;;9.45;;
6372;SDS011;3219;51.362;7.074;2023-05-10T15:20:11;9.18;;;7.03;;
6372;SDS011;3219;51.362;7.074;2023-05-10T15:22:39;10.07;;;6.65;;
6372;SDS011;3219;51.362;7.074;2023-05-10T15:25:06;10.18;;;7.35;;
6372;SDS011;3219;51.362;7.074;2023-05-10T15:27:34;12.15;;;7.45;;
6372;SDS011;3219;51.362;7.074;2023-05-10T15:30:01;11.52;;;7.78;;